Data for 05/19/2008

Time Sea-Level Adjusted Pressure Absolute Pressure Temperature Relative Humidity Dew Point   
(mb) (inHg) (mb) (inHg) (C) (F) (%) (C) (F)
00:05 1016 30 846 24.98 18.4 65.1 32 1.6 34.9
00:10 1016 30 846 24.98 18.3 64.9 33 1.7 35
00:15 1017 30.03 846 24.98 18.2 64.7 33 1.7 35
00:20 1017 30.03 846 24.98 18.1 64.6 33 1.7 35.1
00:25 1017 30.03 846 24.98 18.1 64.7 33 1.7 35
00:30 1017 30.03 846 24.98 18.1 64.6 33 1.7 35.1
00:35 1017 30.03 846 24.98 18.1 64.5 33 1.7 35
00:40 1017 30.03 846 24.98 18 64.5 33 1.8 35.2
00:45 1017 30.03 846 24.98 17.9 64.3 34 1.9 35.4
00:50 1017 30.03 846 24.98 17.9 64.2 33 1.7 35
00:55 1016 30 846 24.98 18 64.4 33 1.8 35.2
01:00 1016 30 846 24.98 18 64.4 34 1.9 35.4
01:05 1016 30 846 24.98 17.9 64.2 33 1.7 35
01:10 1016 30 846 24.98 17.8 64.1 33 1.6 35
01:15 1016 30 846 24.98 17.9 64.2 33 1.7 35
01:20 1016 30 846 24.98 17.8 64 34 1.8 35.3
01:25 1016 30 846 24.98 17.6 63.6 34 1.8 35.2
01:30 1016 30 846 24.98 17.4 63.4 35 1.8 35.2
01:35 1016 30 846 24.98 17.3 63.1 35 1.8 35.3
01:40 1016 30 846 24.98 17.2 62.9 36 2.2 35.9
01:45 1016 30 846 24.98 16.8 62.3 38 2.7 36.8
01:50 1016 30 846 24.98 16.4 61.6 38 2.3 36.2
01:55 1016 30 846 24.98 16.6 61.8 38 2.3 36.2
02:00 1016 30 846 24.98 16.7 62 38 2.5 36.5
02:05 1016 30 846 24.98 16.6 61.8 39 2.6 36.7
02:10 1016 30 846 24.98 16.6 61.9 38 2.5 36.4
02:15 1016 30 846 24.98 16.6 61.9 38 2.4 36.3
02:20 1016 30 846 24.98 16.7 62 38 2.4 36.3
02:25 1016 30 846 24.98 16.8 62.2 37 2.2 35.9
02:30 1016 30 846 24.98 17 62.5 37 2.1 35.8
02:35 1016 30 846 24.98 17 62.7 36 2.1 35.7
02:40 1016 30 846 24.98 17.1 62.7 36 2.1 35.8
02:45 1016 30 846 24.98 17 62.5 37 2.2 36
02:50 1016 30 846 24.98 16.9 62.5 37 2.1 35.9
02:55 1016 30 846 24.98 17 62.5 37 2.3 36.1
03:00 1016 30 846 24.98 17 62.6 37 2.5 36.4
03:05 1016 30 846 24.98 16.8 62.2 37 2.3 36.2
03:10 1017 30.03 846 24.98 16.9 62.5 37 2.3 36.2
03:15 1017 30.03 846 24.98 17.1 62.8 36 2.2 36
03:20 1017 30.03 846 24.98 17.2 62.9 36 2.3 36.1
03:25 1017 30.03 846 24.98 17.3 63.1 36 2.2 35.9
03:30 1017 30.03 846 24.98 17.3 63.2 36 2.1 35.7
03:35 1017 30.03 846 24.98 17.4 63.2 35 2 35.7
03:40 1017 30.03 846 24.98 17.4 63.2 36 2.1 35.9
03:45 1017 30.03 846 24.98 17.3 63.1 37 2.4 36.4
03:50 1017 30.03 846 24.98 17.2 63 37 2.4 36.3
03:55 1017 30.03 846 24.98 17.2 63 37 2.5 36.4
04:00 1017 30.03 846 24.98 17.2 63 37 2.6 36.7
04:05 1017 30.03 846 24.98 17.1 62.8 38 2.8 37
04:10 1017 30.03 846 24.98 17 62.6 38 2.7 36.9
04:15 1017 30.03 846 24.98 17 62.5 38 2.6 36.7
04:20 1017 30.03 846 24.98 16.9 62.5 38 2.5 36.5
04:25 1017 30.03 846 24.98 16.9 62.5 38 2.8 37
04:30 1017 30.03 846 24.98 16.9 62.3 38 2.6 36.7
04:35 1017 30.03 846 24.98 16.8 62.3 39 2.8 37
04:40 1017 30.03 846 24.98 16.7 62 40 3 37.3
04:45 1017 30.03 846 24.98 16.6 61.9 39 2.6 36.7
04:50 1017 30.03 846 24.98 16.7 62.1 38 2.6 36.6
04:55 1017 30.03 846 24.98 16.8 62.3 38 2.6 36.7
05:00 1017 30.03 846 24.98 16.8 62.3 38 2.7 36.9
05:05 1017 30.03 846 24.98 16.7 62 40 3.2 37.7
05:10 1017 30.03 846 24.98 16.4 61.5 41 3.2 37.7
05:15 1017 30.03 846 24.98 16.2 61.2 42 3.4 38.2
05:20 1017 30.03 846 24.98 15.9 60.7 44 3.7 38.7
05:25 1017 30.03 846 24.98 15.6 60.1 45 3.8 38.8
05:30 1017 30.03 846 24.98 15.4 59.7 45 3.5 38.3
05:35 1017 30.03 846 24.98 15.5 59.8 44 3.4 38
05:40 1017 30.03 846 24.98 15.6 60 45 3.8 38.8
05:45 1017 30.03 846 24.98 15.3 59.5 47 4.1 39.4
05:50 1017 30.03 846 24.98 15 58.9 47 3.9 38.9
05:55 1017 30.03 846 24.98 14.8 58.6 48 4 39.2
06:00 1017 30.03 847 25.01 14.8 58.6 48 4.1 39.3
06:05 1017 30.03 847 25.01 14.7 58.4 48 3.9 39.1
06:10 1017 30.03 847 25.01 14.7 58.4 49 4.2 39.5
06:15 1017 30.03 847 25.01 14.5 58.1 48 3.9 38.9
06:20 1017 30.03 847 25.01 14.6 58.3 48 3.9 39.1
06:25 1017 30.03 847 25.01 14.7 58.5 48 3.8 38.9
06:30 1018 30.06 847 25.01 14.8 58.6 50 4.6 40.3
06:35 1018 30.06 847 25.01 14.7 58.4 51 4.8 40.6
06:40 1018 30.06 847 25.01 14.9 58.7 49 4.4 39.9
06:45 1018 30.06 847 25.01 14.9 58.8 51 4.9 40.7
06:50 1018 30.06 847 25.01 14.9 58.8 50 4.7 40.5
06:55 1018 30.06 847 25.01 14.9 58.7 52 5.1 41.1
07:00 1018 30.06 847 25.01 14.8 58.7 55 5.9 42.7
07:05 1018 30.06 847 25.01 14.8 58.6 51 4.9 40.7
07:10 1018 30.06 847 25.01 15.1 59.2 49 4.6 40.3
07:15 1018 30.06 847 25.01 15.4 59.7 49 4.8 40.6
07:20 1018 30.06 847 25.01 15.4 59.7 47 4.1 39.4
07:25 1018 30.06 847 25.01 16 60.7 44 3.8 38.8
07:30 1018 30.06 847 25.01 16.4 61.5 43 3.8 38.9
07:35 1018 30.06 848 25.04 16.5 61.8 44 4.4 39.9
07:40 1018 30.06 848 25.04 16.3 61.4 48 5.5 42
07:45 1018 30.06 848 25.04 16 60.8 49 5.4 41.7
07:50 1018 30.06 848 25.04 15.9 60.5 51 5.9 42.6
07:55 1018 30.06 848 25.04 15.7 60.3 50 5.4 41.8
08:00 1018 30.06 848 25.04 15.6 60 47 4.4 39.9
08:05 1018 30.06 848 25.04 16 60.7 46 4.5 40.1
08:10 1018 30.06 847 25.01 16.2 61.1 45 4.4 39.9
08:15 1018 30.06 847 25.01 16.2 61.1 45 4.5 40.1
08:20 1018 30.06 847 25.01 16.4 61.5 45 4.6 40.3
08:25 1018 30.06 847 25.01 16.7 62.1 44 4.5 40
08:30 1018 30.06 847 25.01 17 62.5 42 4.2 39.6
08:35 1018 30.06 847 25.01 17 62.5 43 4.4 39.8
08:40 1018 30.06 847 25.01 16.8 62.3 43 4.4 39.9
08:45 1018 30.06 848 25.04 16.8 62.3 45 5 41
08:50 1018 30.06 848 25.04 16.6 61.9 45 4.7 40.4
08:55 1018 30.06 848 25.04 16.7 62 45 4.8 40.6
09:00 1018 30.06 848 25.04 16.7 62 45 4.8 40.7
09:05 1018 30.06 848 25.04 16.9 62.5 44 4.6 40.3
09:10 1019 30.09 848 25.04 17.1 62.8 43 4.5 40.1
09:15 1019 30.09 848 25.04 17.5 63.4 42 4.5 40.1
09:20 1019 30.09 848 25.04 17.6 63.7 41 4.4 39.8
09:25 1019 30.09 848 25.04 17.3 63.1 42 4.4 40
09:30 1019 30.09 848 25.04 17.5 63.4 42 4.6 40.2
09:35 1019 30.09 848 25.04 18.2 64.8 40 4.5 40.1
09:40 1019 30.09 848 25.04 18.5 65.2 40 4.6 40.3
09:45 1019 30.09 848 25.04 17.9 64.3 40 4.3 39.7
09:50 1019 30.09 848 25.04 18 64.3 41 4.5 40.1
09:55 1019 30.09 848 25.04 18.2 64.8 39 4.1 39.4
10:00 1018 30.06 848 25.04 18.1 64.6 39 4.1 39.4
10:05 1018 30.06 848 25.04 18.1 64.6 38 3.9 39
10:10 1018 30.06 848 25.04 18 64.4 39 4.1 39.3
10:15 1018 30.06 848 25.04 18.5 65.2 37 3.7 38.7
10:20 1018 30.06 848 25.04 19.4 66.9 34 3.5 38.2
10:25 1018 30.06 848 25.04 19.7 67.4 35 3.9 38.9
10:30 1018 30.06 848 25.04 20.1 68.1 34 4 39.3
10:35 1018 30.06 848 25.04 20.9 69.7 32 3.8 38.9
10:40 1018 30.06 848 25.04 21.4 70.6 31 3.6 38.5
10:45 1018 30.06 848 25.04 21.3 70.4 30 3.3 37.9
10:50 1018 30.06 848 25.04 20.2 68.4 32 3 37.4
10:55 1018 30.06 848 25.04 20.8 69.4 31 3 37.4
11:00 1018 30.06 848 25.04 21.5 70.8 30 3.3 38
11:05 1018 30.06 847 25.01 21.4 70.4 32 4 39.2
11:10 1018 30.06 847 25.01 20.8 69.5 31 3.3 37.9
11:15 1018 30.06 847 25.01 20.2 68.3 32 3.3 37.9
11:20 1018 30.06 847 25.01 20.4 68.7 31 3.1 37.5
11:25 1018 30.06 847 25.01 20.5 69 32 3.6 38.5
11:30 1018 30.06 847 25.01 20.9 69.6 31 3.2 37.8
11:35 1018 30.06 847 25.01 21.7 71 30 3.6 38.4
11:40 1018 30.06 847 25.01 22.1 71.8 29 3.6 38.5
11:45 1018 30.06 847 25.01 22.6 72.7 28 3.3 38
11:50 1018 30.06 847 25.01 22 71.6 30 3.8 38.9
11:55 1018 30.06 847 25.01 22.2 72 28 2.8 37.1
12:00 1018 30.06 847 25.01 22.9 73.3 28 3.6 38.4
12:05 1018 30.06 847 25.01 22 71.7 30 4 39.2
12:10 1018 30.06 847 25.01 22 71.5 29 3.6 38.4
12:15 1018 30.06 847 25.01 22.2 72 30 3.9 39
12:20 1018 30.06 847 25.01 22.4 72.3 29 3.5 38.3
12:25 1018 30.06 847 25.01 22.4 72.3 29 3.7 38.6
12:30 1018 30.06 847 25.01 22.2 71.9 30 4.1 39.3
12:35 1018 30.06 847 25.01 21.5 70.8 30 3.4 38.1
12:40 1018 30.06 847 25.01 23 73.5 28 3.9 39.1
12:45 1018 30.06 847 25.01 22.9 73.3 29 4.2 39.5
12:50 1018 30.06 847 25.01 23.7 74.7 28 4.5 40.2
12:55 1018 30.06 847 25.01 23.5 74.4 28 4.1 39.4
13:00 1018 30.06 847 25.01 23.4 74.1 29 4.4 39.9
13:05 1018 30.06 847 25.01 24 75.2 27 4.1 39.4
13:10 1018 30.06 847 25.01 24.2 75.6 28 4.6 40.2
13:15 1018 30.06 847 25.01 24.3 75.8 27 4.4 40
13:20 1018 30.06 847 25.01 24.4 75.9 27 4.3 39.7
13:25 1017 30.03 847 25.01 24.3 75.7 28 4.8 40.6
13:30 1017 30.03 847 25.01 23.9 75 28 4.7 40.5
13:35 1017 30.03 847 25.01 23.8 74.8 28 4.5 40.2
13:40 1017 30.03 847 25.01 23.8 74.8 28 4.3 39.7
13:45 1017 30.03 847 25.01 24.2 75.6 27 4.2 39.6
13:50 1017 30.03 847 25.01 24.3 75.8 27 4.6 40.2
13:55 1017 30.03 847 25.01 24.8 76.7 26 4.5 40.1
14:00 1017 30.03 847 25.01 24.7 76.4 27 4.8 40.7
14:05 1017 30.03 847 25.01 25.1 77.2 27 4.9 40.7
14:10 1017 30.03 847 25.01 25.2 77.4 26 4.8 40.6
14:15 1017 30.03 847 25.01 24.8 76.7 26 4.4 40
14:20 1017 30.03 846 24.98 24.4 76 28 5 40.9
14:25 1017 30.03 846 24.98 24.6 76.2 28 4.9 40.8
14:30 1017 30.03 846 24.98 24.6 76.4 28 5 41
14:35 1017 30.03 846 24.98 24.4 75.8 28 4.9 40.8
14:40 1017 30.03 846 24.98 24.6 76.3 28 5 41
14:45 1017 30.03 846 24.98 24.2 75.6 28 5 40.9
14:50 1017 30.03 846 24.98 24.1 75.4 29 5.4 41.7
14:55 1017 30.03 846 24.98 24.2 75.5 27 4.4 40
15:00 1017 30.03 846 24.98 24.1 75.4 28 4.8 40.6
15:05 1017 30.03 846 24.98 25 77 26 4.5 40.1
15:10 1017 30.03 846 24.98 24.4 76 28 4.9 40.9
15:15 1017 30.03 846 24.98 24.7 76.5 26 4.2 39.6
15:20 1017 30.03 846 24.98 25.3 77.5 26 4.5 40.1
15:25 1017 30.03 846 24.98 25.8 78.4 26 5.2 41.4
15:30 1017 30.03 846 24.98 25.9 78.6 25 4.6 40.3
15:35 1017 30.03 846 24.98 26.4 79.5 23 3.8 38.8
15:40 1017 30.03 846 24.98 26.4 79.5 23 4.1 39.4
15:45 1017 30.03 846 24.98 26.6 79.9 23 4.1 39.4
15:50 1017 30.03 846 24.98 26.5 79.7 24 4.4 39.9
15:55 1017 30.03 846 24.98 25.8 78.4 24 4.1 39.4
16:00 1017 30.03 846 24.98 26.1 79.1 23 3.8 38.8
16:05 1017 30.03 846 24.98 26.1 79 24 4.3 39.7
16:10 1017 30.03 846 24.98 24.5 76 27 4.2 39.6
16:15 1017 30.03 846 24.98 24.6 76.3 26 4.1 39.4
16:20 1017 30.03 846 24.98 25.1 77.2 25 4.2 39.5
16:25 1017 30.03 846 24.98 25.1 77.1 26 4.3 39.7
16:30 1017 30.03 846 24.98 24.9 76.9 26 4.1 39.5
16:35 1016 30 846 24.98 24.6 76.3 26 4.2 39.6
16:40 1016 30 846 24.98 24.6 76.2 26 4 39.3
16:45 1016 30 846 24.98 24.7 76.4 26 4.3 39.7
16:50 1016 30 846 24.98 23.9 75 29 4.8 40.7
16:55 1016 30 846 24.98 22.9 73.2 29 4.3 39.8
17:00 1016 30 846 24.98 23 73.3 29 4.3 39.7
17:05 1016 30 846 24.98 23.4 74 29 4.4 39.9
17:10 1016 30 846 24.98 23.4 74.1 28 4.1 39.4
17:15 1016 30 846 24.98 23.3 73.9 28 4.2 39.6
17:20 1016 30 846 24.98 23.3 73.9 29 4.4 39.9
17:25 1016 30 846 24.98 23.3 73.9 28 4.1 39.4
17:30 1016 30 846 24.98 23.5 74.3 27 3.6 38.6
17:35 1016 30 846 24.98 24.7 76.4 25 3.8 38.9
17:40 1016 30 846 24.98 24.9 76.8 27 4.8 40.6
17:45 1016 30 846 24.98 24.5 76.2 26 4.2 39.6
17:50 1016 30 846 24.98 23.8 74.8 27 4 39.1
17:55 1016 30 846 24.98 23.9 74.9 27 3.9 39
18:00 1016 30 846 24.98 24.1 75.3 27 4 39.2
18:05 1016 30 846 24.98 23.7 74.6 27 4 39.2
18:10 1016 30 846 24.98 23.4 74 28 3.9 39.1
18:15 1016 30 846 24.98 23.5 74.2 27 3.8 38.9
18:20 1016 30 846 24.98 23.7 74.7 27 3.8 38.9
18:25 1016 30 846 24.98 23.8 74.9 27 3.9 39
18:30 1016 30 846 24.98 23.6 74.4 27 3.6 38.5
18:35 1016 30 845 24.95 23.7 74.7 26 3.3 37.9
18:40 1016 30 845 24.95 23.4 74 27 3.8 38.8
18:45 1016 30 845 24.95 23.2 73.7 28 3.9 39.1
18:50 1016 30 845 24.95 23.1 73.6 27 3.6 38.4
18:55 1016 30 845 24.95 23 73.5 27 3.2 37.8
19:00 1016 30 846 24.98 23.1 73.5 27 3.4 38.1
19:05 1016 30 846 24.98 23.3 73.9 27 3.4 38.2
19:10 1016 30 846 24.98 23.5 74.4 26 3.2 37.8
19:15 1016 30 846 24.98 23.3 73.9 26 2.9 37.1
19:20 1016 30 846 24.98 23.1 73.6 26 3 37.4
19:25 1016 30 846 24.98 23.1 73.6 27 3.5 38.3
19:30 1016 30 846 24.98 22.1 71.7 37 6.9 44.4
19:35 1017 30.03 846 24.98 20.4 68.8 41 6.9 44.4
19:40 1017 30.03 846 24.98 19.7 67.4 43 6.9 44.4
19:45 1017 30.03 846 24.98 19.1 66.4 44 6.7 44.1
19:50 1017 30.03 846 24.98 18.7 65.7 45 6.7 44
19:55 1017 30.03 846 24.98 18.3 64.9 46 6.4 43.6
20:00 1017 30.03 846 24.98 17.8 64.1 47 6.4 43.5
20:05 1017 30.03 846 24.98 17.5 63.5 47 6.3 43.4
20:10 1017 30.03 846 24.98 17.3 63.1 48 6.3 43.3
20:15 1017 30.03 846 24.98 17.1 62.7 48 6.1 43
20:20 1017 30.03 846 24.98 16.9 62.4 48 6.1 42.9
20:25 1017 30.03 846 24.98 16.8 62.2 49 6.2 43.1
20:30 1017 30.03 846 24.98 16.6 61.9 49 6.1 43
20:35 1017 30.03 846 24.98 16.5 61.7 50 6.1 43
20:40 1017 30.03 846 24.98 16.4 61.5 50 6 42.8
20:45 1017 30.03 846 24.98 16.3 61.3 50 5.9 42.7
20:50 1017 30.03 846 24.98 16.2 61.1 50 5.9 42.6
20:55 1017 30.03 846 24.98 16 60.9 50 5.8 42.5
21:00 1017 30.03 846 24.98 15.9 60.7 51 5.8 42.4
21:05 1017 30.03 846 24.98 15.8 60.5 51 5.7 42.2
21:10 1017 30.03 846 24.98 15.7 60.3 51 5.6 42.1
21:15 1017 30.03 847 25.01 15.6 60 51 5.7 42.2
21:20 1017 30.03 847 25.01 15.4 59.8 51 5.5 42
21:25 1017 30.03 847 25.01 15.3 59.5 52 5.6 42
21:30 1018 30.06 847 25.01 15.2 59.3 52 5.5 41.9
21:35 1018 30.06 847 25.01 15.1 59.2 52 5.5 41.8
21:40 1018 30.06 847 25.01 15 59.1 53 5.5 41.9
21:45 1018 30.06 847 25.01 14.9 58.9 53 5.5 41.9
21:50 1018 30.06 847 25.01 14.8 58.7 53 5.5 41.8
21:55 1018 30.06 847 25.01 14.8 58.6 53 5.5 41.8
22:00 1018 30.06 847 25.01 14.7 58.5 53 5.4 41.8
22:05 1018 30.06 847 25.01 14.7 58.5 53 5.5 41.8
22:10 1018 30.06 847 25.01 14.7 58.4 54 5.5 41.8
22:15 1018 30.06 847 25.01 14.6 58.3 54 5.5 41.9
22:20 1018 30.06 847 25.01 14.5 58.1 55 5.5 42
22:25 1018 30.06 847 25.01 14.4 57.9 55 5.5 42
22:30 1018 30.06 847 25.01 14.3 57.7 55 5.5 42
22:35 1018 30.06 847 25.01 14.2 57.6 56 5.5 41.9
22:40 1018 30.06 847 25.01 14.1 57.5 56 5.5 42
22:45 1018 30.06 847 25.01 13.9 57.1 57 5.7 42.2
22:50 1018 30.06 847 25.01 13.7 56.7 58 5.6 42.1
22:55 1018 30.06 847 25.01 13.6 56.5 58 5.5 42
23:00 1018 30.06 847 25.01 13.6 56.5 58 5.5 41.9
23:05 1018 30.06 847 25.01 13.6 56.4 58 5.5 41.9
23:10 1018 30.06 848 25.04 13.5 56.2 59 5.6 42
23:15 1018 30.06 847 25.01 13.4 56 59 5.5 42
23:20 1018 30.06 847 25.01 13.3 56 59 5.6 42.1
23:25 1018 30.06 847 25.01 13.2 55.7 60 5.7 42.3
23:30 1018 30.06 847 25.01 12.9 55.2 62 5.7 42.3
23:35 1018 30.06 847 25.01 12.7 54.8 63 5.8 42.4
23:40 1018 30.06 847 25.01 12.5 54.5 63 5.7 42.2
23:45 1018 30.06 848 25.04 12.4 54.4 63 5.7 42.3
23:50 1018 30.06 847 25.01 12.3 54.2 63 5.6 42.1
23:55 1018 30.06 848 25.04 12.4 54.3 62 5.5 41.9
24:00 1018 30.06 848 25.04 12.6 54.6 62 5.6 42